Time;durP1;ratioP1;P1;durP2;ratioP2;P2;SDS_P1;SDS_P2;PMS_P1;PMS_P2;Temp;Humidity;BMP_temperature;BMP_pressure;BME280_temperature;BME280_humidity;BME280_pressure;Samples;Min_cycle;Max_cycle;Signal;HPM_P1;HPM_P2
2022/03/18 00:01:16;;;;;;;9.70;4.40;;;9.40;99.90;;;;;;4992268;28;20469;-73
2022/03/18 00:04:03;;;;;;;11.20;4.90;;;9.40;99.90;;;;;;4989719;28;20477;-74
2022/03/18 00:06:49;;;;;;;6.03;4.47;;;9.30;99.90;;;;;;4992353;28;20489;-73
2022/03/18 00:09:34;;;;;;;13.20;4.83;;;9.20;99.90;;;;;;4994807;28;20448;-73
2022/03/18 00:12:20;;;;;;;9.00;3.97;;;9.10;99.90;;;;;;4989028;28;20572;-73
2022/03/18 00:15:08;;;;;;;15.03;4.53;;;9.00;99.90;;;;;;4993169;28;20426;-73
2022/03/18 00:17:54;;;;;;;11.10;4.60;;;9.00;99.90;;;;;;4992273;28;20413;-73
2022/03/18 00:20:42;;;;;;;9.67;4.43;;;9.00;99.90;;;;;;4997685;28;20438;-72
2022/03/18 00:23:27;;;;;;;10.33;4.33;;;9.00;99.90;;;;;;4991379;28;20508;-72
2022/03/18 00:26:13;;;;;;;12.17;4.57;;;9.00;99.90;;;;;;4993025;28;20535;-72
2022/03/18 00:28:59;;;;;;;14.33;4.50;;;8.90;99.90;;;;;;4988975;28;20805;-72
2022/03/18 00:31:45;;;;;;;9.27;4.53;;;8.90;99.90;;;;;;4988104;28;20927;-72
2022/03/18 00:34:31;;;;;;;10.23;4.40;;;8.90;99.90;;;;;;4993358;28;20811;-72
2022/03/18 00:37:18;;;;;;;11.33;4.40;;;8.80;99.90;;;;;;4996943;28;20445;-72
2022/03/18 00:40:06;;;;;;;10.00;4.90;;;8.80;99.90;;;;;;4994991;28;20547;-72
2022/03/18 00:42:52;;;;;;;9.63;4.50;;;8.80;99.90;;;;;;4991490;28;20606;-72
2022/03/18 00:45:38;;;;;;;8.43;4.57;;;8.80;99.90;;;;;;4991976;28;20446;-72
2022/03/18 00:54:32;;;;;;;10.20;4.67;;;8.70;99.90;;;;;;4992321;28;20824;-72
2022/03/18 00:57:17;;;;;;;29.33;5.13;;;8.60;99.90;;;;;;4991417;28;20436;-72
2022/03/18 01:00:03;;;;;;;10.47;3.63;;;8.60;99.90;;;;;;4995509;28;20429;-72
2022/03/18 01:02:49;;;;;;;11.30;4.77;;;8.60;99.90;;;;;;4990716;28;20446;-72
2022/03/18 01:05:34;;;;;;;9.87;4.80;;;8.60;99.90;;;;;;4990998;28;20592;-72
2022/03/18 01:08:20;;;;;;;11.83;4.60;;;8.50;99.90;;;;;;4990114;28;20441;-72
2022/03/18 01:11:07;;;;;;;20.80;4.80;;;8.40;99.90;;;;;;4988968;28;20469;-72
2022/03/18 01:13:53;;;;;;;13.20;4.70;;;8.40;99.90;;;;;;4994413;28;21009;-73
2022/03/18 01:16:38;;;;;;;10.13;4.27;;;8.40;99.90;;;;;;4989912;28;20506;-73
2022/03/18 01:19:24;;;;;;;14.93;5.93;;;8.40;99.90;;;;;;4993685;28;20923;-72
2022/03/18 01:22:10;;;;;;;12.17;3.80;;;8.30;99.90;;;;;;4988124;28;20526;-72
2022/03/18 01:24:55;;;;;;;11.00;4.13;;;8.20;99.90;;;;;;4988581;28;20464;-72
2022/03/18 01:27:42;;;;;;;7.20;3.77;;;8.30;99.90;;;;;;4991885;28;20830;-72
2022/03/18 01:30:28;;;;;;;14.00;5.00;;;8.30;99.90;;;;;;4986449;28;20964;-72
2022/03/18 01:33:14;;;;;;;10.83;5.73;;;8.20;99.90;;;;;;4996152;28;20421;-72
2022/03/18 01:36:00;;;;;;;15.70;4.63;;;8.20;99.90;;;;;;4990233;28;20407;-72
2022/03/18 01:38:45;;;;;;;8.37;4.80;;;8.20;99.90;;;;;;4990575;28;20445;-72
2022/03/18 01:41:32;;;;;;;13.53;4.57;;;8.30;99.90;;;;;;4989648;28;20889;-72
2022/03/18 01:44:19;;;;;;;20.00;4.63;;;8.30;99.90;;;;;;4992113;28;20802;-72
2022/03/18 01:47:05;;;;;;;7.93;3.47;;;8.20;99.90;;;;;;4987623;28;20846;-73
2022/03/18 01:49:51;;;;;;;8.80;4.00;;;8.20;99.90;;;;;;4995091;28;20444;-72
2022/03/18 01:55:07;;;;;;;9.50;3.47;;;8.30;99.90;;;;;;5026583;28;20850;-74
2022/03/18 01:57:53;;;;;;;8.57;3.30;;;8.30;99.90;;;;;;5027029;28;20450;-74
2022/03/18 02:00:40;;;;;;;10.13;4.50;;;8.20;99.90;;;;;;5018757;28;20461;-74
2022/03/18 02:03:26;;;;;;;7.40;3.87;;;8.20;99.90;;;;;;5026729;28;20459;-74
2022/03/18 02:06:12;;;;;;;12.77;3.90;;;8.10;99.90;;;;;;5026698;28;20472;-74
2022/03/18 02:08:57;;;;;;;13.57;3.63;;;8.00;99.90;;;;;;5030091;28;20471;-72
2022/03/18 02:11:44;;;;;;;11.27;4.17;;;8.00;99.90;;;;;;5025279;28;20459;-74
2022/03/18 02:14:34;;;;;;;12.67;3.90;;;8.00;99.90;;;;;;5025309;28;20464;-74
2022/03/18 02:17:21;;;;;;;10.80;4.20;;;8.00;99.90;;;;;;5029884;28;20512;-74
2022/03/18 02:20:08;;;;;;;14.10;3.73;;;8.00;99.90;;;;;;5022520;28;20429;-75
2022/03/18 02:22:55;;;;;;;15.20;4.30;;;8.00;99.90;;;;;;5028421;28;20483;-73
2022/03/18 02:25:41;;;;;;;11.00;4.30;;;8.00;99.90;;;;;;5027096;28;20456;-74
2022/03/18 02:28:27;;;;;;;12.77;4.77;;;8.00;99.90;;;;;;5025683;28;20548;-74
2022/03/18 02:31:12;;;;;;;8.43;3.60;;;8.00;99.90;;;;;;5025902;28;20951;-74
2022/03/18 02:33:58;;;;;;;11.23;3.90;;;8.00;99.90;;;;;;5024596;28;20476;-74
2022/03/18 02:36:44;;;;;;;12.40;4.00;;;8.00;99.90;;;;;;5026746;28;20590;-74
2022/03/18 02:39:31;;;;;;;21.90;3.93;;;8.00;99.90;;;;;;5027048;28;20976;-74
2022/03/18 02:42:18;;;;;;;10.53;4.23;;;8.00;99.90;;;;;;5028245;28;20445;-74
2022/03/18 02:45:05;;;;;;;9.50;4.20;;;8.00;99.90;;;;;;5035170;28;20962;-74
2022/03/18 02:47:51;;;;;;;15.57;3.77;;;7.90;99.90;;;;;;5026537;28;20475;-74
2022/03/18 02:50:36;;;;;;;14.77;5.07;;;7.90;99.90;;;;;;5021684;28;20501;-74
2022/03/18 02:53:22;;;;;;;9.40;3.93;;;7.90;99.90;;;;;;5022939;28;20629;-74
2022/03/18 02:56:09;;;;;;;7.83;4.37;;;8.00;99.90;;;;;;5024255;28;20440;-74
2022/03/18 02:58:55;;;;;;;11.37;3.80;;;7.90;99.90;;;;;;5024318;28;20446;-74
2022/03/18 03:01:41;;;;;;;7.37;3.60;;;7.90;99.90;;;;;;5027206;28;20427;-74
2022/03/18 03:04:26;;;;;;;6.53;4.07;;;7.90;99.90;;;;;;5022160;28;21000;-75
2022/03/18 03:10:16;;;;;;;7.90;3.83;;;7.80;99.90;;;;;;5025919;28;20442;-74
2022/03/18 03:13:06;;;;;;;12.80;5.37;;;7.80;99.90;;;;;;5029916;28;21306;-74
2022/03/18 03:15:51;;;;;;;10.00;4.10;;;7.80;99.90;;;;;;5023142;28;20443;-74
2022/03/18 03:18:37;;;;;;;14.03;4.17;;;7.80;99.90;;;;;;5018544;28;20425;-75
2022/03/18 03:21:22;;;;;;;13.57;4.80;;;7.80;99.90;;;;;;5027410;28;20813;-74
2022/03/18 03:24:08;;;;;;;10.07;3.40;;;7.80;99.90;;;;;;5026569;28;20484;-74
2022/03/18 03:26:54;;;;;;;16.37;4.93;;;7.80;99.90;;;;;;5026439;28;20829;-74
2022/03/18 03:29:41;;;;;;;13.43;4.30;;;7.80;99.90;;;;;;5017505;28;20836;-74
2022/03/18 03:32:27;;;;;;;12.07;3.90;;;7.80;99.90;;;;;;5021563;28;20590;-74
2022/03/18 03:35:15;;;;;;;9.40;4.50;;;7.80;99.90;;;;;;5027829;28;20497;-74
2022/03/18 03:38:00;;;;;;;13.17;5.37;;;7.70;99.90;;;;;;5018566;28;20979;-74
2022/03/18 03:40:47;;;;;;;10.10;4.17;;;7.70;99.90;;;;;;5025263;28;20499;-74
2022/03/18 03:43:33;;;;;;;10.03;4.33;;;7.70;99.90;;;;;;5033102;28;20465;-73
2022/03/18 03:46:20;;;;;;;14.73;4.40;;;7.70;99.90;;;;;;5031088;28;20457;-74
2022/03/18 03:49:05;;;;;;;12.70;5.07;;;7.70;99.90;;;;;;5023299;28;21067;-74
2022/03/18 03:51:51;;;;;;;12.43;5.47;;;7.70;99.90;;;;;;5027727;28;21090;-74
2022/03/18 03:54:37;;;;;;;9.13;4.27;;;7.60;99.90;;;;;;5027354;28;20617;-74
2022/03/18 03:57:23;;;;;;;11.33;4.80;;;7.60;99.90;;;;;;5031279;28;20572;-74
2022/03/18 04:00:11;;;;;;;10.47;4.40;;;7.60;99.90;;;;;;5026507;28;20961;-74
2022/03/18 04:02:57;;;;;;;15.67;4.57;;;7.60;99.90;;;;;;5036033;28;21031;-74
2022/03/18 04:05:43;;;;;;;11.50;4.33;;;7.60;99.90;;;;;;5026108;28;20463;-74
2022/03/18 04:08:29;;;;;;;10.03;4.20;;;7.60;99.90;;;;;;5024990;28;20463;-74
2022/03/18 04:11:15;;;;;;;15.03;5.40;;;7.60;99.90;;;;;;5027897;28;20449;-74
2022/03/18 04:14:00;;;;;;;15.17;4.13;;;7.60;99.90;;;;;;5025949;28;20467;-74
2022/03/18 04:16:46;;;;;;;13.53;4.23;;;7.60;99.90;;;;;;5028786;28;20467;-74
2022/03/18 04:19:33;;;;;;;5.77;3.93;;;7.60;99.90;;;;;;5030571;28;20437;-74
2022/03/18 04:22:18;;;;;;;12.43;4.93;;;7.60;99.90;;;;;;5037091;28;21128;-74
2022/03/18 04:25:05;;;;;;;18.73;5.77;;;7.60;99.90;;;;;;5030356;28;20422;-74
2022/03/18 04:27:51;;;;;;;12.07;3.93;;;7.60;99.90;;;;;;5022824;28;20954;-74
2022/03/18 04:30:37;;;;;;;9.90;4.10;;;7.60;99.90;;;;;;5029590;28;20953;-74
2022/03/18 04:33:22;;;;;;;13.70;4.60;;;7.60;99.90;;;;;;5029121;28;20470;-74
2022/03/18 04:36:09;;;;;;;15.20;4.70;;;7.70;99.90;;;;;;5031267;28;20466;-74
2022/03/18 04:38:55;;;;;;;21.13;5.90;;;7.70;99.90;;;;;;5022209;28;20444;-74
2022/03/18 04:41:41;;;;;;;12.23;4.27;;;7.60;99.90;;;;;;5030647;28;20492;-74
2022/03/18 04:44:27;;;;;;;10.43;5.07;;;7.60;99.90;;;;;;5027479;28;20924;-74
2022/03/18 04:47:12;;;;;;;11.53;5.10;;;7.70;99.90;;;;;;5024020;28;20514;-74
2022/03/18 04:49:58;;;;;;;9.33;3.97;;;7.70;99.90;;;;;;5026825;28;20433;-74
2022/03/18 04:52:45;;;;;;;13.63;3.53;;;7.70;99.90;;;;;;5025802;28;20424;-74
2022/03/18 04:55:31;;;;;;;11.20;5.33;;;7.60;99.90;;;;;;5032973;28;21116;-74
2022/03/18 04:58:16;;;;;;;14.80;5.23;;;7.50;99.90;;;;;;5029431;28;20810;-74
2022/03/18 05:01:03;;;;;;;17.03;5.57;;;7.50;99.90;;;;;;5022655;28;20595;-74
2022/03/18 05:03:49;;;;;;;10.80;4.03;;;7.50;99.90;;;;;;5030076;28;20481;-75
2022/03/18 05:06:34;;;;;;;16.83;5.03;;;7.60;99.90;;;;;;5024563;28;20537;-74
2022/03/18 05:09:23;;;;;;;18.87;4.90;;;7.60;99.90;;;;;;5025195;28;20482;-74
2022/03/18 05:12:10;;;;;;;12.20;5.23;;;7.60;99.90;;;;;;5025570;28;20532;-74
2022/03/18 05:14:56;;;;;;;12.37;5.33;;;7.60;99.90;;;;;;5027504;28;21003;-74
2022/03/18 05:17:42;;;;;;;15.37;4.70;;;7.60;99.90;;;;;;5022751;28;20946;-74
2022/03/18 05:20:29;;;;;;;10.60;4.10;;;7.60;99.90;;;;;;5027368;28;20564;-74
2022/03/18 05:23:14;;;;;;;13.43;5.27;;;7.50;99.90;;;;;;5026473;28;20452;-74
2022/03/18 05:26:01;;;;;;;11.20;5.07;;;7.50;99.90;;;;;;5025439;28;20458;-74
2022/03/18 05:28:47;;;;;;;17.03;4.17;;;7.50;99.90;;;;;;5026223;28;20585;-74
2022/03/18 05:31:35;;;;;;;9.23;4.97;;;7.50;99.90;;;;;;5027353;28;20847;-74
2022/03/18 05:34:20;;;;;;;10.57;4.67;;;7.60;99.90;;;;;;5019776;28;20471;-74
2022/03/18 05:37:06;;;;;;;16.97;4.90;;;7.60;99.90;;;;;;5025394;28;20450;-74
2022/03/18 05:39:52;;;;;;;15.50;5.50;;;7.60;99.90;;;;;;5028056;28;20513;-73
2022/03/18 05:42:39;;;;;;;10.30;5.27;;;7.50;99.90;;;;;;5026712;28;20491;-74
2022/03/18 05:45:25;;;;;;;14.40;6.70;;;7.50;99.90;;;;;;5028328;28;20524;-73
2022/03/18 05:48:10;;;;;;;14.93;5.00;;;7.50;99.90;;;;;;5024574;28;20508;-73
2022/03/18 05:50:56;;;;;;;9.27;4.20;;;7.40;99.90;;;;;;5027169;28;20445;-74
2022/03/18 05:53:42;;;;;;;7.90;4.60;;;7.40;99.90;;;;;;5022689;28;20456;-74
2022/03/18 05:59:34;;;;;;;12.80;4.93;;;7.40;99.90;;;;;;5026724;28;20442;-74
2022/03/18 06:02:20;;;;;;;13.10;4.87;;;7.30;99.90;;;;;;5029413;28;20493;-74
2022/03/18 06:05:07;;;;;;;18.73;5.53;;;7.30;99.90;;;;;;5020552;28;20439;-74
2022/03/18 06:11:48;;;;;;;14.20;5.33;;;7.30;99.90;;;;;;5027165;28;20474;-74
2022/03/18 06:14:02;;;;;;;21.63;5.90;;;7.40;99.90;;;;;;5025587;28;20470;-74
2022/03/18 06:16:50;;;;;;;14.13;6.37;;;7.40;99.90;;;;;;5021104;28;20470;-74
2022/03/18 06:19:36;;;;;;;22.43;6.40;;;7.40;99.90;;;;;;5023324;28;20487;-74
2022/03/18 06:22:22;;;;;;;13.07;5.50;;;7.40;99.90;;;;;;5023086;28;20462;-74
2022/03/18 06:25:09;;;;;;;14.33;5.70;;;7.40;99.90;;;;;;5030855;28;20433;-74
2022/03/18 06:27:54;;;;;;;18.93;5.07;;;7.40;99.90;;;;;;5025236;28;20520;-73
2022/03/18 06:30:40;;;;;;;8.70;4.77;;;7.30;99.90;;;;;;5029197;28;20466;-74
2022/03/18 06:33:27;;;;;;;8.30;4.67;;;7.40;99.90;;;;;;5021769;28;20835;-74
2022/03/18 06:36:12;;;;;;;15.00;5.77;;;7.40;99.90;;;;;;5022370;28;20529;-74
2022/03/18 06:38:58;;;;;;;13.60;5.20;;;7.50;99.90;;;;;;5025544;28;20550;-73
2022/03/18 06:41:44;;;;;;;22.03;5.30;;;7.50;99.90;;;;;;5023502;28;20425;-73
2022/03/18 06:44:29;;;;;;;15.83;5.63;;;7.50;99.90;;;;;;5026415;28;20466;-73
2022/03/18 06:47:15;;;;;;;11.37;5.70;;;7.60;99.90;;;;;;5024284;28;20447;-73
2022/03/18 06:50:02;;;;;;;11.87;4.50;;;7.50;99.90;;;;;;5025819;28;20837;-74
2022/03/18 06:52:48;;;;;;;11.20;4.73;;;7.60;99.90;;;;;;5029200;28;20442;-74
2022/03/18 06:55:33;;;;;;;9.37;4.77;;;7.60;99.90;;;;;;5015951;28;20473;-74
2022/03/18 06:58:19;;;;;;;15.83;5.67;;;7.60;99.90;;;;;;5027191;28;20446;-73
2022/03/18 07:01:05;;;;;;;18.80;5.70;;;7.60;99.90;;;;;;5021682;28;20578;-74
2022/03/18 07:03:51;;;;;;;17.50;4.93;;;7.60;99.90;;;;;;5025376;28;20899;-74
2022/03/18 07:06:38;;;;;;;14.80;6.60;;;7.70;99.90;;;;;;5024658;28;20450;-74
2022/03/18 07:09:24;;;;;;;14.63;6.17;;;7.60;99.90;;;;;;5027347;28;21025;-74
2022/03/18 07:12:10;;;;;;;10.97;6.20;;;7.70;99.90;;;;;;5028293;28;20843;-74
2022/03/18 07:14:56;;;;;;;14.10;5.50;;;7.70;99.90;;;;;;5018868;28;20471;-74
2022/03/18 07:17:59;;;;;;;10.27;4.80;;;7.70;99.90;;;;;;5028561;28;20442;-74
2022/03/18 07:20:46;;;;;;;15.13;6.40;;;7.60;99.90;;;;;;5031103;28;20438;-74
2022/03/18 07:23:32;;;;;;;13.93;6.87;;;7.70;99.90;;;;;;5027105;28;20474;-74
2022/03/18 07:26:18;;;;;;;12.07;6.53;;;7.80;99.90;;;;;;5029457;28;20526;-73
2022/03/18 07:29:05;;;;;;;19.97;7.23;;;7.70;99.90;;;;;;5032100;28;20903;-74
2022/03/18 07:31:54;;;;;;;15.43;6.47;;;7.80;99.90;;;;;;5029060;28;20458;-74
2022/03/18 07:34:40;;;;;;;19.47;6.77;;;7.80;99.90;;;;;;5025932;28;20839;-74
2022/03/18 07:37:26;;;;;;;15.03;6.77;;;7.80;99.90;;;;;;5027396;28;20449;-74
2022/03/18 07:40:14;;;;;;;18.23;6.50;;;7.90;99.90;;;;;;5032892;28;20458;-74
2022/03/18 07:43:00;;;;;;;13.73;5.60;;;7.90;99.90;;;;;;5026546;28;20618;-74
2022/03/18 07:45:46;;;;;;;25.00;5.90;;;8.00;99.90;;;;;;5025300;28;20460;-74
2022/03/18 07:48:32;;;;;;;15.83;7.10;;;8.00;99.90;;;;;;5026560;28;20555;-74
2022/03/18 07:51:17;;;;;;;14.43;6.63;;;8.00;99.90;;;;;;5025333;28;20421;-73
2022/03/18 07:54:03;;;;;;;12.47;6.90;;;8.00;99.90;;;;;;5024155;28;20469;-74
2022/03/18 07:56:51;;;;;;;14.27;6.77;;;8.00;99.90;;;;;;5028305;28;20440;-74
2022/03/18 07:59:37;;;;;;;17.13;6.03;;;8.10;99.90;;;;;;5028022;28;20449;-74
2022/03/18 08:02:22;;;;;;;11.60;6.00;;;8.10;99.90;;;;;;5031730;28;20765;-74
2022/03/18 08:05:09;;;;;;;14.73;5.80;;;8.10;99.90;;;;;;5025393;28;20440;-73
2022/03/18 08:07:55;;;;;;;11.50;6.10;;;8.10;99.90;;;;;;5029173;28;20502;-73
2022/03/18 08:10:41;;;;;;;12.70;5.90;;;8.20;99.90;;;;;;5027535;28;20585;-73
2022/03/18 08:13:29;;;;;;;14.93;5.40;;;8.20;99.90;;;;;;5020526;28;20482;-74
2022/03/18 08:16:14;;;;;;;12.80;6.10;;;8.30;99.90;;;;;;5025374;28;20933;-73
2022/03/18 08:19:00;;;;;;;18.03;5.97;;;8.30;99.90;;;;;;5025750;28;20845;-73
2022/03/18 08:21:45;;;;;;;10.00;5.53;;;8.40;99.90;;;;;;5024581;28;20807;-73
2022/03/18 08:24:32;;;;;;;10.00;5.73;;;8.50;99.90;;;;;;5024624;28;20661;-73
2022/03/18 08:27:18;;;;;;;14.90;5.43;;;8.60;99.90;;;;;;5023285;28;20460;-73
2022/03/18 08:30:07;;;;;;;10.33;6.13;;;8.60;99.90;;;;;;5024515;28;20464;-73
2022/03/18 08:32:53;;;;;;;20.00;6.40;;;8.70;99.90;;;;;;5023987;28;20473;-73
2022/03/18 08:35:39;;;;;;;11.00;6.37;;;8.70;99.90;;;;;;5024406;28;20556;-73
2022/03/18 08:38:25;;;;;;;13.53;6.07;;;8.70;99.90;;;;;;5035463;28;20424;-73
2022/03/18 08:41:12;;;;;;;13.80;6.10;;;8.70;99.90;;;;;;5025179;28;20475;-73
2022/03/18 08:43:57;;;;;;;11.43;6.50;;;8.70;99.90;;;;;;5019884;28;20482;-73
2022/03/18 08:46:44;;;;;;;19.13;6.20;;;8.80;99.90;;;;;;5021799;28;20949;-73
2022/03/18 08:49:30;;;;;;;15.23;5.63;;;8.80;99.90;;;;;;5023591;28;20555;-73
2022/03/18 08:52:16;;;;;;;9.17;6.00;;;8.90;99.90;;;;;;5035465;28;20439;-73
2022/03/18 08:55:02;;;;;;;11.10;5.77;;;8.90;99.90;;;;;;5022840;28;20440;-73
2022/03/18 08:57:48;;;;;;;9.10;5.03;;;9.00;99.90;;;;;;5030415;28;20531;-71
2022/03/18 09:00:34;;;;;;;16.83;6.10;;;9.00;99.90;;;;;;5024679;28;20416;-72
2022/03/18 09:03:21;;;;;;;15.00;6.40;;;9.20;99.90;;;;;;5023551;28;20979;-71
2022/03/18 09:06:07;;;;;;;17.17;6.30;;;9.30;99.90;;;;;;5027659;28;20400;-71
2022/03/18 09:08:52;;;;;;;12.93;6.53;;;9.50;99.90;;;;;;5033717;28;20481;-71
2022/03/18 09:11:38;;;;;;;9.77;5.57;;;9.50;99.90;;;;;;5027983;28;20482;-71
2022/03/18 09:14:23;;;;;;;10.77;5.90;;;9.50;99.90;;;;;;5026321;28;20527;-72
2022/03/18 09:17:09;;;;;;;9.47;5.00;;;9.60;99.90;;;;;;5027095;28;20427;-72
2022/03/18 09:19:56;;;;;;;13.20;6.07;;;9.60;99.90;;;;;;5026666;28;20416;-73
2022/03/18 09:22:42;;;;;;;18.40;6.70;;;9.70;99.90;;;;;;5022163;28;20457;-73
2022/03/18 09:25:27;;;;;;;11.40;6.57;;;9.70;99.90;;;;;;5025726;28;20450;-74
2022/03/18 09:28:13;;;;;;;15.20;6.30;;;9.70;99.90;;;;;;5036743;28;20448;-73
2022/03/18 09:30:59;;;;;;;14.07;5.87;;;9.70;99.90;;;;;;5025302;28;20975;-73
2022/03/18 09:33:46;;;;;;;13.20;5.50;;;9.80;99.90;;;;;;5020931;28;20584;-73
2022/03/18 09:36:33;;;;;;;12.40;5.47;;;9.90;99.90;;;;;;5022692;28;20422;-73
2022/03/18 09:39:19;;;;;;;16.60;5.83;;;10.10;99.90;;;;;;5034395;28;20419;-72
2022/03/18 09:42:05;;;;;;;12.90;5.90;;;10.40;99.90;;;;;;5035180;28;20452;-74
2022/03/18 09:44:51;;;;;;;17.13;5.47;;;10.60;99.90;;;;;;5020700;28;20441;-74
2022/03/18 09:47:36;;;;;;;12.33;6.10;;;10.80;99.90;;;;;;5028608;28;20498;-74
2022/03/18 09:50:22;;;;;;;11.80;6.50;;;11.00;99.90;;;;;;5022855;28;20468;-74
2022/03/18 09:53:09;;;;;;;13.30;5.03;;;11.10;99.90;;;;;;5023563;28;20582;-73
2022/03/18 09:55:55;;;;;;;10.27;5.90;;;11.20;99.90;;;;;;5020594;28;20403;-74
2022/03/18 09:58:41;;;;;;;13.87;7.13;;;11.30;99.90;;;;;;5016706;28;20442;-73
2022/03/18 10:01:26;;;;;;;15.40;5.20;;;11.50;99.90;;;;;;5014748;28;20440;-73
2022/03/18 10:04:13;;;;;;;13.13;6.40;;;11.50;99.90;;;;;;5018353;28;20519;-73
2022/03/18 10:07:13;;;;;;;14.70;6.73;;;11.60;99.90;;;;;;5023142;28;20457;-74
2022/03/18 10:10:10;;;;;;;16.77;6.27;;;11.50;99.90;;;;;;5020826;28;20544;-74
2022/03/18 10:13:01;;;;;;;14.10;6.87;;;11.50;99.90;;;;;;5021415;28;20580;-73
2022/03/18 10:15:48;;;;;;;11.47;6.87;;;11.50;99.90;;;;;;5019345;28;20508;-74
2022/03/18 10:18:33;;;;;;;10.97;6.03;;;11.70;99.90;;;;;;5024503;28;20433;-74
2022/03/18 10:21:19;;;;;;;14.60;5.47;;;11.70;99.90;;;;;;5023225;28;20418;-74
2022/03/18 10:24:07;;;;;;;11.60;7.20;;;11.80;99.90;;;;;;5032376;28;20465;-74
2022/03/18 10:27:11;;;;;;;16.57;6.90;;;11.80;99.90;;;;;;5019182;28;20408;-72
2022/03/18 10:29:57;;;;;;;14.80;5.97;;;11.90;99.90;;;;;;5030613;28;20430;-72
2022/03/18 10:32:49;;;;;;;12.77;6.10;;;12.10;99.90;;;;;;5016248;28;20470;-73
2022/03/18 10:38:40;;;;;;;15.57;6.27;;;12.30;99.90;;;;;;5024747;28;20502;-74
2022/03/18 10:41:25;;;;;;;17.30;6.97;;;12.40;99.90;;;;;;5015622;28;20424;-74
2022/03/18 10:44:15;;;;;;;13.07;6.10;;;12.60;98.00;;;;;;5021898;28;20803;-73
2022/03/18 10:47:01;;;;;;;14.57;6.57;;;12.60;97.70;;;;;;5033540;28;20423;-74
2022/03/18 10:49:47;;;;;;;13.50;6.20;;;12.80;97.10;;;;;;5014353;28;20934;-73
2022/03/18 10:52:33;;;;;;;14.33;5.70;;;12.80;96.30;;;;;;5032764;28;20472;-73
2022/03/18 10:55:21;;;;;;;10.90;5.80;;;12.90;95.00;;;;;;5018833;28;20435;-73
2022/03/18 10:58:10;;;;;;;12.53;6.70;;;13.00;94.80;;;;;;5032288;28;20420;-73
2022/03/18 11:00:59;;;;;;;16.50;6.90;;;13.10;94.00;;;;;;5024300;28;20603;-74
2022/03/18 11:03:45;;;;;;;12.70;6.10;;;13.20;93.30;;;;;;5022233;28;20430;-73
2022/03/18 11:06:31;;;;;;;11.77;4.97;;;13.30;93.40;;;;;;5034798;28;20954;-74
2022/03/18 11:09:20;;;;;;;11.47;6.00;;;13.40;90.80;;;;;;5023591;28;20448;-71
2022/03/18 11:12:06;;;;;;;15.53;6.00;;;13.60;91.60;;;;;;5025798;28;20420;-73
2022/03/18 11:14:55;;;;;;;12.70;5.40;;;13.60;87.70;;;;;;5027398;28;20469;-73
2022/03/18 11:17:45;;;;;;;10.17;5.67;;;13.70;90.00;;;;;;5027224;28;20450;-73
2022/03/18 11:20:33;;;;;;;11.50;5.23;;;13.90;89.40;;;;;;5025951;28;20552;-73
2022/03/18 11:23:20;;;;;;;16.20;5.60;;;14.00;81.90;;;;;;5028826;28;20615;-74
2022/03/18 11:26:07;;;;;;;11.53;5.40;;;14.20;79.90;;;;;;5026899;28;20472;-72
2022/03/18 11:29:10;;;;;;;10.00;5.20;;;14.30;77.20;;;;;;5029473;28;20510;-73
2022/03/18 11:32:21;;;;;;;12.17;5.33;;;14.10;72.00;;;;;;5024585;28;20425;-73
2022/03/18 11:35:09;;;;;;;6.40;4.57;;;14.10;73.00;;;;;;5030574;28;20976;-73
2022/03/18 11:38:06;;;;;;;8.50;3.83;;;14.20;71.50;;;;;;5033787;28;20934;-73
2022/03/18 11:40:53;;;;;;;9.70;4.30;;;14.20;68.80;;;;;;5027226;28;20795;-73
2022/03/18 11:43:50;;;;;;;8.60;5.10;;;14.20;67.30;;;;;;5025302;28;20448;-72
2022/03/18 11:46:35;;;;;;;10.50;4.10;;;14.20;66.30;;;;;;5029862;28;20657;-72
2022/03/18 11:49:32;;;;;;;7.30;3.70;;;14.20;63.60;;;;;;5023856;28;20417;-71
2022/03/18 11:52:19;;;;;;;9.87;4.00;;;14.20;64.10;;;;;;5037901;28;20792;-70
2022/03/18 11:55:09;;;;;;;9.83;4.37;;;14.30;65.10;;;;;;5024702;28;20468;-71
2022/03/18 11:57:55;;;;;;;6.53;2.97;;;14.50;65.80;;;;;;5031409;28;20854;-71
2022/03/18 12:00:43;;;;;;;6.77;3.20;;;14.60;61.90;;;;;;5020058;28;20490;-70
2022/03/18 12:03:36;;;;;;;5.57;3.50;;;14.70;61.40;;;;;;5022425;28;20923;-69
2022/03/18 12:06:22;;;;;;;9.90;3.87;;;14.80;62.40;;;;;;5026427;28;20771;-70
2022/03/18 12:09:08;;;;;;;8.90;3.80;;;14.90;61.80;;;;;;5026876;28;20485;-70
2022/03/18 12:11:55;;;;;;;8.53;3.47;;;14.90;60.80;;;;;;5025848;28;20471;-70
2022/03/18 12:14:40;;;;;;;6.03;3.40;;;15.10;60.90;;;;;;5031482;28;20511;-70
2022/03/18 12:17:26;;;;;;;12.57;4.00;;;15.20;61.00;;;;;;5027854;28;20998;-69
2022/03/18 12:20:13;;;;;;;13.37;3.27;;;15.30;55.90;;;;;;5027349;28;20895;-70
2022/03/18 12:23:02;;;;;;;12.10;4.13;;;15.50;55.00;;;;;;5027888;28;20448;-69
2022/03/18 12:25:50;;;;;;;7.23;4.40;;;15.70;58.30;;;;;;5026959;28;20428;-72
2022/03/18 12:28:45;;;;;;;6.63;3.80;;;15.70;51.50;;;;;;5026748;28;20537;-72
2022/03/18 12:31:31;;;;;;;8.30;3.83;;;15.70;51.60;;;;;;5024629;28;20998;-72
2022/03/18 12:34:19;;;;;;;12.73;3.27;;;15.70;51.60;;;;;;5028029;28;20524;-73
2022/03/18 12:37:17;;;;;;;5.87;3.60;;;15.60;50.10;;;;;;5026957;28;20895;-73
2022/03/18 12:40:06;;;;;;;400.30;175.60;;;15.60;48.60;;;;;;5027201;28;20533;-71
2022/03/18 12:42:55;;;;;;;15.60;7.20;;;15.60;49.90;;;;;;5027932;28;20454;-73
2022/03/18 12:45:42;;;;;;;5.90;3.57;;;15.70;51.90;;;;;;5032501;28;20449;-73
2022/03/18 12:48:28;;;;;;;9.03;3.40;;;15.80;49.50;;;;;;5025456;28;20581;-73
2022/03/18 12:51:13;;;;;;;9.87;3.10;;;15.90;48.90;;;;;;5029515;28;20449;-73
2022/03/18 12:53:59;;;;;;;7.40;3.00;;;16.00;49.80;;;;;;5022438;28;20957;-73
2022/03/18 12:56:45;;;;;;;5.47;2.50;;;16.00;47.00;;;;;;5026650;28;20945;-73
2022/03/18 12:59:32;;;;;;;6.33;3.00;;;16.00;45.20;;;;;;5015322;28;20570;-73
2022/03/18 13:02:18;;;;;;;5.20;2.37;;;15.90;44.60;;;;;;5018312;28;20482;-72
2022/03/18 13:05:06;;;;;;;3.97;2.47;;;16.00;45.80;;;;;;5018275;28;20421;-72
2022/03/18 13:07:57;;;;;;;6.73;3.00;;;15.90;43.70;;;;;;5027997;28;20437;-73
2022/03/18 13:10:45;;;;;;;12.50;3.80;;;15.90;42.70;;;;;;5020690;28;20472;-73
2022/03/18 13:13:30;;;;;;;7.50;3.10;;;15.90;43.40;;;;;;5021619;28;20448;-73
2022/03/18 13:16:19;;;;;;;9.60;3.37;;;15.80;42.30;;;;;;5030024;28;20428;-72
2022/03/18 13:19:07;;;;;;;14.27;3.73;;;15.60;41.40;;;;;;5033064;28;20449;-73
2022/03/18 13:21:52;;;;;;;7.70;3.57;;;15.50;42.80;;;;;;5026042;28;20625;-73
2022/03/18 13:24:39;;;;;;;6.70;3.03;;;15.40;43.90;;;;;;5027346;28;20619;-72
2022/03/18 13:27:24;;;;;;;7.37;3.00;;;15.30;43.50;;;;;;5031263;28;20805;-73
2022/03/18 13:33:16;;;;;;;8.47;3.13;;;15.20;42.10;;;;;;5023093;28;20887;-73
2022/03/18 13:36:02;;;;;;;5.70;3.10;;;15.10;42.90;;;;;;5028047;28;20577;-73
2022/03/18 13:38:49;;;;;;;9.77;3.50;;;15.00;43.00;;;;;;5035155;28;20426;-73
2022/03/18 13:41:47;;;;;;;13.63;3.80;;;15.10;42.70;;;;;;5022127;28;20618;-73
2022/03/18 13:44:45;;;;;;;7.90;3.10;;;15.40;43.80;;;;;;5028884;28;20492;-73
2022/03/18 13:47:45;;;;;;;4.90;2.90;;;15.60;42.20;;;;;;5032030;28;20437;-73
2022/03/18 13:50:47;;;;;;;10.13;4.17;;;15.70;43.00;;;;;;5022959;28;20462;-73
2022/03/18 13:53:34;;;;;;;9.23;5.70;;;15.90;44.90;;;;;;5021168;28;20521;-73
2022/03/18 13:56:20;;;;;;;7.40;5.70;;;16.00;43.70;;;;;;5030355;28;20444;-73
2022/03/18 13:59:11;;;;;;;10.00;5.60;;;16.10;44.60;;;;;;5022595;28;20419;-71
2022/03/18 14:02:02;;;;;;;9.67;7.20;;;16.40;45.40;;;;;;5026837;28;20454;-73
2022/03/18 14:04:49;;;;;;;7.00;5.10;;;16.40;44.10;;;;;;5025985;28;20450;-73
2022/03/18 14:07:48;;;;;;;11.57;6.00;;;16.50;44.90;;;;;;5025983;28;20445;-72
2022/03/18 14:10:42;;;;;;;11.30;7.23;;;16.40;44.20;;;;;;5026063;28;20797;-73
2022/03/18 14:13:28;;;;;;;15.90;7.53;;;16.30;45.10;;;;;;5026374;28;20465;-73
2022/03/18 14:16:15;;;;;;;16.57;7.37;;;16.20;44.80;;;;;;5031526;28;21008;-73
2022/03/18 14:19:01;;;;;;;14.83;9.17;;;16.00;46.60;;;;;;5033356;28;21341;-72
2022/03/18 14:21:46;;;;;;;22.60;14.10;;;16.00;46.20;;;;;;5021487;28;20589;-73
2022/03/18 14:24:33;;;;;;;20.27;14.57;;;16.10;45.50;;;;;;5030946;28;20489;-72
2022/03/18 14:27:19;;;;;;;20.33;14.33;;;16.10;44.80;;;;;;5028144;28;20451;-72
2022/03/18 14:30:10;;;;;;;24.23;15.33;;;16.00;43.90;;;;;;5031772;28;20991;-72
2022/03/18 14:32:57;;;;;;;20.80;13.27;;;15.90;46.30;;;;;;5031409;28;20467;-72
2022/03/18 14:35:43;;;;;;;17.80;12.83;;;15.80;46.60;;;;;;5023803;28;20430;-71
2022/03/18 14:38:30;;;;;;;20.63;14.07;;;15.50;47.50;;;;;;5030162;28;20451;-72
2022/03/18 14:41:18;;;;;;;20.57;12.30;;;15.40;47.50;;;;;;5020745;28;20429;-73
2022/03/18 14:44:04;;;;;;;22.20;12.37;;;15.30;47.50;;;;;;5029977;28;20448;-71
2022/03/18 14:46:50;;;;;;;18.30;11.90;;;15.40;48.40;;;;;;5030745;28;20618;-71
2022/03/18 14:49:35;;;;;;;27.33;12.07;;;15.50;48.50;;;;;;5022020;28;20988;-73
2022/03/18 14:52:21;;;;;;;12.67;9.77;;;15.70;48.70;;;;;;5021370;28;20489;-73